Time,TemperatureF,DewpointF,PressureIn,WindDirection,WindDirectionDegrees,WindSpeedMPH,WindSpeedGustMPH,Humidity,HourlyPrecipIn,Conditions,Clouds,dailyrainin,SoftwareType,DateUTC
2017-04-25 00:10:00,62.6,53.0,29.59,South,175,13.0,17.0,71,0.00,,,0.00,weatherlink.com 1.10,2017-04-25 05:10:00,
2017-04-25 00:25:00,62.7,53.0,29.59,South,184,9.0,16.0,71,0.00,,,0.00,weatherlink.com 1.10,2017-04-25 05:25:00,
2017-04-25 00:40:00,63.0,53.0,29.57,South,174,13.0,16.0,70,0.00,,,0.00,weatherlink.com 1.10,2017-04-25 05:40:00,
2017-04-25 00:55:00,63.2,53.0,29.57,South,181,6.0,15.0,69,0.00,,,0.00,weatherlink.com 1.10,2017-04-25 05:55:00,
2017-04-25 01:10:00,63.0,53.0,29.57,South,184,7.0,15.0,69,0.00,,,0.00,weatherlink.com 1.10,2017-04-25 06:10:00,
2017-04-25 01:25:00,63.1,53.0,29.57,South,174,10.0,14.0,69,0.00,,,0.00,weatherlink.com 1.10,2017-04-25 06:25:00,
2017-04-25 01:45:00,63.1,53.0,29.56,South,189,5.0,11.0,69,0.00,,,0.00,weatherlink.com 1.10,2017-04-25 06:45:00,
2017-04-25 01:55:00,62.5,53.0,29.56,South,181,6.0,11.0,70,0.00,,,0.00,weatherlink.com 1.10,2017-04-25 06:55:00,
2017-04-25 02:10:00,62.3,52.0,29.56,South,186,6.0,12.0,70,0.00,,,0.00,weatherlink.com 1.10,2017-04-25 07:10:00,
2017-04-25 02:25:00,62.2,52.0,29.55,South,182,9.0,11.0,70,0.00,,,0.00,weatherlink.com 1.10,2017-04-25 07:25:00,
2017-04-25 02:40:00,62.2,53.0,29.54,SSE,167,8.0,11.0,71,0.00,,,0.00,weatherlink.com 1.10,2017-04-25 07:40:00,
2017-04-25 02:55:00,62.0,53.0,29.54,South,177,10.0,10.0,72,0.00,,,0.00,weatherlink.com 1.10,2017-04-25 07:55:00,
2017-04-25 03:10:00,62.3,53.0,29.54,SSW,192,10.0,11.0,72,0.00,,,0.00,weatherlink.com 1.10,2017-04-25 08:10:00,
2017-04-25 03:25:00,62.3,54.0,29.53,South,189,10.0,13.0,74,0.00,,,0.00,weatherlink.com 1.10,2017-04-25 08:25:00,
2017-04-25 03:40:00,62.6,54.0,29.52,South,184,9.0,15.0,74,0.00,,,0.00,weatherlink.com 1.10,2017-04-25 08:40:00,
2017-04-25 03:55:00,62.4,54.0,29.52,SSW,197,11.0,15.0,75,0.00,,,0.00,weatherlink.com 1.10,2017-04-25 08:55:00,
2017-04-25 04:10:00,62.1,54.0,29.52,South,171,11.0,15.0,76,0.00,,,0.00,weatherlink.com 1.10,2017-04-25 09:10:00,
2017-04-25 04:25:00,61.9,55.0,29.51,South,181,13.0,17.0,77,0.00,,,0.00,weatherlink.com 1.10,2017-04-25 09:25:00,
2017-04-25 04:41:00,61.8,55.0,29.51,South,178,8.0,21.0,77,0.00,,,0.00,weatherlink.com 1.10,2017-04-25 09:41:00,
2017-04-25 04:56:00,61.5,55.0,29.52,South,171,12.0,17.0,78,0.00,,,0.00,weatherlink.com 1.10,2017-04-25 09:56:00,
2017-04-25 05:11:00,61.2,55.0,29.51,SSE,150,12.0,16.0,79,0.00,,,0.00,weatherlink.com 1.10,2017-04-25 10:11:00,
2017-04-25 05:26:00,61.0,54.0,29.51,South,184,7.0,16.0,79,0.00,,,0.00,weatherlink.com 1.10,2017-04-25 10:26:00,
2017-04-25 05:42:00,60.9,54.0,29.51,South,184,10.0,19.0,79,0.00,,,0.00,weatherlink.com 1.10,2017-04-25 10:42:00,
2017-04-25 05:56:00,60.6,54.0,29.52,South,189,9.0,13.0,79,0.00,,,0.00,weatherlink.com 1.10,2017-04-25 10:56:00,
2017-04-25 06:11:00,60.8,54.0,29.52,South,180,8.0,18.0,79,0.00,,,0.00,weatherlink.com 1.10,2017-04-25 11:11:00,
2017-04-25 06:26:00,60.3,54.0,29.51,SSW,201,6.0,17.0,80,0.00,,,0.00,weatherlink.com 1.10,2017-04-25 11:26:00,
2017-04-25 06:41:00,59.9,54.0,29.51,South,178,8.0,14.0,81,0.00,,,0.00,weatherlink.com 1.10,2017-04-25 11:41:00,
2017-04-25 06:56:00,59.7,55.0,29.50,South,175,11.0,18.0,83,0.00,,,0.00,weatherlink.com 1.10,2017-04-25 11:56:00,
2017-04-25 07:11:00,60.1,55.0,29.50,South,190,10.0,19.0,83,0.00,,,0.00,weatherlink.com 1.10,2017-04-25 12:11:00,
2017-04-25 07:26:00,60.9,56.0,29.51,South,173,9.0,17.0,83,0.00,,,0.00,weatherlink.com 1.10,2017-04-25 12:26:00,
2017-04-25 07:41:00,61.5,56.0,29.51,SSW,194,9.0,17.0,83,0.00,,,0.00,weatherlink.com 1.10,2017-04-25 12:41:00,
2017-04-25 07:56:00,62.3,57.0,29.50,South,182,14.0,18.0,83,0.00,,,0.00,weatherlink.com 1.10,2017-04-25 12:56:00,
2017-04-25 08:11:00,63.1,58.0,29.50,South,187,12.0,22.0,83,0.00,,,0.00,weatherlink.com 1.10,2017-04-25 13:11:00,
2017-04-25 08:26:00,63.8,58.0,29.50,SSW,196,13.0,22.0,81,0.00,,,0.00,weatherlink.com 1.10,2017-04-25 13:26:00,
2017-04-25 08:41:00,63.6,58.0,29.50,SE,138,14.0,23.0,83,0.00,,,0.00,weatherlink.com 1.10,2017-04-25 13:41:00,
2017-04-25 08:56:00,65.7,59.0,29.49,South,175,17.0,22.0,80,0.00,,,0.00,weatherlink.com 1.10,2017-04-25 13:56:00,
2017-04-25 09:11:00,66.9,60.0,29.50,SW,218,21.0,22.0,78,0.00,,,0.00,weatherlink.com 1.10,2017-04-25 14:11:00,
2017-04-25 09:26:00,68.0,60.0,29.50,SSE,167,20.0,28.0,76,0.00,,,0.00,weatherlink.com 1.10,2017-04-25 14:26:00,
2017-04-25 09:41:00,68.7,61.0,29.50,SW,219,11.0,21.0,76,0.00,,,0.00,weatherlink.com 1.10,2017-04-25 14:41:00,
2017-04-25 09:56:00,70.2,62.0,29.49,SSW,200,10.0,22.0,74,0.00,,,0.00,weatherlink.com 1.10,2017-04-25 14:56:00,
2017-04-25 10:11:00,69.2,61.0,29.49,SSW,202,17.0,19.0,75,0.00,,,0.00,weatherlink.com 1.10,2017-04-25 15:11:00,
2017-04-25 10:26:00,71.9,63.0,29.49,SSW,196,12.0,22.0,73,0.00,,,0.00,weatherlink.com 1.10,2017-04-25 15:26:00,
2017-04-25 10:41:00,72.8,63.0,29.49,SSW,209,14.0,20.0,71,0.00,,,0.00,weatherlink.com 1.10,2017-04-25 15:41:00,
2017-04-25 10:56:00,73.4,63.0,29.49,South,181,13.0,21.0,71,0.00,,,0.00,weatherlink.com 1.10,2017-04-25 15:56:00,
2017-04-25 11:11:00,74.2,65.0,29.49,South,186,12.0,20.0,73,0.00,,,0.00,weatherlink.com 1.10,2017-04-25 16:11:00,
2017-04-25 11:26:00,75.2,65.0,29.49,SSW,193,10.0,22.0,70,0.00,,,0.00,weatherlink.com 1.10,2017-04-25 16:26:00,
2017-04-25 11:42:00,76.1,65.0,29.48,SSE,167,20.0,21.0,69,0.00,,,0.00,weatherlink.com 1.10,2017-04-25 16:42:00,
2017-04-25 11:57:00,76.5,66.0,29.48,SSE,159,13.0,22.0,70,0.00,,,0.00,weatherlink.com 1.10,2017-04-25 16:57:00,
2017-04-25 12:12:00,77.0,67.0,29.47,SSW,193,18.0,23.0,70,0.00,,,0.00,weatherlink.com 1.10,2017-04-25 17:12:00,
2017-04-25 12:27:00,77.3,66.0,29.47,SSW,207,19.0,22.0,69,0.00,,,0.00,weatherlink.com 1.10,2017-04-25 17:27:00,
2017-04-25 12:42:00,77.8,67.0,29.46,SSW,209,12.0,22.0,69,0.00,,,0.00,weatherlink.com 1.10,2017-04-25 17:42:00,
2017-04-25 12:57:00,78.0,67.0,29.45,South,189,12.0,22.0,70,0.00,,,0.00,weatherlink.com 1.10,2017-04-25 17:57:00,
2017-04-25 13:12:00,78.0,67.0,29.46,South,177,13.0,21.0,69,0.00,,,0.00,weatherlink.com 1.10,2017-04-25 18:12:00,
2017-04-25 13:27:00,78.9,68.0,29.45,South,186,16.0,23.0,69,0.00,,,0.00,weatherlink.com 1.10,2017-04-25 18:27:00,
2017-04-25 13:42:00,79.4,67.0,29.44,South,182,18.0,24.0,67,0.00,,,0.00,weatherlink.com 1.10,2017-04-25 18:42:00,
2017-04-25 13:57:00,80.1,68.0,29.44,South,176,18.0,23.0,67,0.00,,,0.00,weatherlink.com 1.10,2017-04-25 18:57:00,
2017-04-25 14:12:00,80.5,69.0,29.44,SSE,150,16.0,25.0,68,0.00,,,0.00,weatherlink.com 1.10,2017-04-25 19:12:00,
2017-04-25 14:27:00,81.1,69.0,29.43,SSW,204,15.0,22.0,67,0.00,,,0.00,weatherlink.com 1.10,2017-04-25 19:27:00,
2017-04-25 14:42:00,81.1,69.0,29.43,South,188,15.0,24.0,66,0.00,,,0.00,weatherlink.com 1.10,2017-04-25 19:42:00,